Terminal Aerodrome Forecast
Issued by NWS Brownsville, TX

Home | Current Version | Previous Version | Text Only | Print | Product List | Glossary On
Versions: 1 2 3 4 5 6 7 8 9 10 11 12 13 14 15 16
000
FTUS44 KBRO 270540
TAFMFE
TAF
KMFE 270540Z 2706/2806 VRB05KT P6SM SCT020
     FM271800 08014KT P6SM FEW030 SCT050
     FM280200 09008KT P6SM FEW050=

USA.gov is the U.S. government's official web portal to all federal, state and local government web resources and services.